Munfordville, Kentucky
Current Conditions -  °F | °C
As of 12:15 PM on Friday 28 Nov 2014 (Local Time) from KGLW Reporting Station
Clear Clear  
Wind Chill: 35°   Ceiling: Unl
Heat Index: 40°   Visibility: 10mi
Dew Point: 23°   Wind: 7mph
Humidity: 52%   Direction: 160°SSE
Pressure: 30.32"   Gusts: NA
Location:  37.27°N, 85.89°W
Report Text: KGLW 281815Z AUTO 16006KT 10SM CLR 04/M05 A3032 RMK AO2 T00421049
Loading
Personal Weather Stations






























Interactive Weather Map New forecast layout! Learn more

10-Day Weather Forecast

Advertisements
Track Severe Weather on mobile